sensor_id;sensor_type;location;lat;lon;timestamp;pressure;altitude;pressure_sealevel;temperature;humidity
57038;BME280;59942;49.304;8.256;2023-11-19T00:00:13;100279.47;;;7.57;100.00
57038;BME280;59942;49.304;8.256;2023-11-19T00:02:42;100289.00;;;7.55;100.00
57038;BME280;59942;49.304;8.256;2023-11-19T00:05:10;100277.84;;;7.55;100.00
57038;BME280;59942;49.304;8.256;2023-11-19T00:07:42;100264.31;;;7.46;100.00
57038;BME280;59942;49.304;8.256;2023-11-19T00:10:16;100268.34;;;7.55;100.00
57038;BME280;59942;49.304;8.256;2023-11-19T00:12:48;100289.69;;;7.60;100.00
57038;BME280;59942;49.304;8.256;2023-11-19T00:15:16;100284.63;;;7.57;100.00
57038;BME280;59942;49.304;8.256;2023-11-19T00:17:47;100265.44;;;7.66;100.00
57038;BME280;59942;49.304;8.256;2023-11-19T00:20:16;100212.25;;;7.35;100.00
57038;BME280;59942;49.304;8.256;2023-11-19T00:22:46;100272.13;;;7.72;100.00
57038;BME280;59942;49.304;8.256;2023-11-19T00:25:17;100268.63;;;7.74;100.00
57038;BME280;59942;49.304;8.256;2023-11-19T00:27:43;100260.72;;;7.79;100.00
57038;BME280;59942;49.304;8.256;2023-11-19T00:30:13;100258.25;;;7.76;100.00
57038;BME280;59942;49.304;8.256;2023-11-19T00:32:41;100248.69;;;7.78;100.00
57038;BME280;59942;49.304;8.256;2023-11-19T00:35:08;100245.03;;;7.85;100.00
57038;BME280;59942;49.304;8.256;2023-11-19T00:37:36;100237.59;;;7.76;100.00
57038;BME280;59942;49.304;8.256;2023-11-19T00:40:06;100259.53;;;7.89;100.00
57038;BME280;59942;49.304;8.256;2023-11-19T00:42:33;100228.38;;;7.69;100.00
57038;BME280;59942;49.304;8.256;2023-11-19T00:45:00;100251.06;;;7.84;100.00
57038;BME280;59942;49.304;8.256;2023-11-19T00:47:27;100244.03;;;7.89;100.00
57038;BME280;59942;49.304;8.256;2023-11-19T00:49:54;100261.00;;;7.96;100.00
57038;BME280;59942;49.304;8.256;2023-11-19T00:52:23;100262.22;;;7.86;100.00
57038;BME280;59942;49.304;8.256;2023-11-19T00:54:49;100269.06;;;7.87;100.00
57038;BME280;59942;49.304;8.256;2023-11-19T00:57:16;100272.44;;;7.89;100.00
57038;BME280;59942;49.304;8.256;2023-11-19T00:59:43;100250.84;;;7.92;100.00
57038;BME280;59942;49.304;8.256;2023-11-19T01:02:09;100229.44;;;7.88;100.00
57038;BME280;59942;49.304;8.256;2023-11-19T01:04:36;100244.09;;;7.88;100.00
57038;BME280;59942;49.304;8.256;2023-11-19T01:07:04;100241.44;;;7.89;100.00
57038;BME280;59942;49.304;8.256;2023-11-19T01:09:31;100254.94;;;7.97;100.00
57038;BME280;59942;49.304;8.256;2023-11-19T01:12:02;100251.56;;;7.95;100.00
57038;BME280;59942;49.304;8.256;2023-11-19T01:14:30;100245.47;;;7.98;100.00
57038;BME280;59942;49.304;8.256;2023-11-19T01:16:59;100249.72;;;7.99;100.00
57038;BME280;59942;49.304;8.256;2023-11-19T01:19:25;100237.94;;;7.92;100.00
57038;BME280;59942;49.304;8.256;2023-11-19T01:21:52;100229.31;;;7.91;100.00
57038;BME280;59942;49.304;8.256;2023-11-19T01:24:18;100241.19;;;7.97;100.00
57038;BME280;59942;49.304;8.256;2023-11-19T01:26:46;100206.69;;;7.74;100.00
57038;BME280;59942;49.304;8.256;2023-11-19T01:29:16;100248.81;;;8.00;100.00
57038;BME280;59942;49.304;8.256;2023-11-19T01:31:43;100231.91;;;7.91;100.00
57038;BME280;59942;49.304;8.256;2023-11-19T01:34:14;100261.50;;;8.08;100.00
57038;BME280;59942;49.304;8.256;2023-11-19T01:36:43;100260.72;;;8.04;100.00
57038;BME280;59942;49.304;8.256;2023-11-19T01:39:09;100251.31;;;8.03;100.00
57038;BME280;59942;49.304;8.256;2023-11-19T01:41:41;100257.16;;;8.08;100.00
57038;BME280;59942;49.304;8.256;2023-11-19T01:44:07;100253.63;;;8.11;100.00
57038;BME280;59942;49.304;8.256;2023-11-19T01:46:34;100256.09;;;8.14;100.00
57038;BME280;59942;49.304;8.256;2023-11-19T01:49:04;100237.31;;;8.09;100.00
57038;BME280;59942;49.304;8.256;2023-11-19T01:51:32;100240.59;;;8.14;100.00
57038;BME280;59942;49.304;8.256;2023-11-19T01:53:58;100231.06;;;8.16;100.00
57038;BME280;59942;49.304;8.256;2023-11-19T01:56:28;100239.38;;;8.24;100.00
57038;BME280;59942;49.304;8.256;2023-11-19T01:58:57;100218.19;;;8.14;100.00
57038;BME280;59942;49.304;8.256;2023-11-19T02:01:24;100221.66;;;8.15;100.00
57038;BME280;59942;49.304;8.256;2023-11-19T02:03:51;100223.00;;;8.25;100.00
57038;BME280;59942;49.304;8.256;2023-11-19T02:06:21;100221.31;;;8.24;100.00
57038;BME280;59942;49.304;8.256;2023-11-19T02:08:50;100224.75;;;8.25;100.00
57038;BME280;59942;49.304;8.256;2023-11-19T02:11:16;100224.75;;;8.25;100.00
57038;BME280;59942;49.304;8.256;2023-11-19T02:13:43;100220.53;;;8.22;100.00
57038;BME280;59942;49.304;8.256;2023-11-19T02:16:14;100221.53;;;8.18;100.00
57038;BME280;59942;49.304;8.256;2023-11-19T02:18:43;100237.38;;;8.32;100.00
57038;BME280;59942;49.304;8.256;2023-11-19T02:21:10;100224.28;;;8.37;100.00
57038;BME280;59942;49.304;8.256;2023-11-19T02:23:37;100221.66;;;8.39;100.00
57038;BME280;59942;49.304;8.256;2023-11-19T02:26:12;100208.75;;;8.39;100.00
57038;BME280;59942;49.304;8.256;2023-11-19T02:28:43;100153.91;;;8.07;100.00
57038;BME280;59942;49.304;8.256;2023-11-19T02:31:12;100196.72;;;8.38;100.00
57038;BME280;59942;49.304;8.256;2023-11-19T02:33:40;100178.53;;;8.41;100.00
57038;BME280;59942;49.304;8.256;2023-11-19T02:36:07;100182.31;;;8.32;100.00
57038;BME280;59942;49.304;8.256;2023-11-19T02:38:35;100192.63;;;8.32;100.00
57038;BME280;59942;49.304;8.256;2023-11-19T02:41:06;100202.69;;;8.40;100.00
57038;BME280;59942;49.304;8.256;2023-11-19T02:43:37;100164.81;;;8.15;100.00
57038;BME280;59942;49.304;8.256;2023-11-19T02:46:04;100212.28;;;8.36;100.00
57038;BME280;59942;49.304;8.256;2023-11-19T02:48:38;100213.78;;;8.42;100.00
57038;BME280;59942;49.304;8.256;2023-11-19T02:51:05;100215.47;;;8.43;100.00
57038;BME280;59942;49.304;8.256;2023-11-19T02:53:36;100213.78;;;8.42;100.00
57038;BME280;59942;49.304;8.256;2023-11-19T02:56:04;100217.09;;;8.47;100.00
57038;BME280;59942;49.304;8.256;2023-11-19T02:58:56;100202.47;;;8.46;100.00
57038;BME280;59942;49.304;8.256;2023-11-19T03:01:26;100186.03;;;8.48;100.00
57038;BME280;59942;49.304;8.256;2023-11-19T03:04:00;100187.59;;;8.52;100.00
57038;BME280;59942;49.304;8.256;2023-11-19T03:06:27;100183.38;;;8.50;100.00
57038;BME280;59942;49.304;8.256;2023-11-19T03:08:55;100181.56;;;8.52;100.00
57038;BME280;59942;49.304;8.256;2023-11-19T03:11:26;100176.41;;;8.52;100.00
57038;BME280;59942;49.304;8.256;2023-11-19T03:13:55;100177.44;;;8.48;100.00
57038;BME280;59942;49.304;8.256;2023-11-19T03:16:22;100178.44;;;8.44;100.00
57038;BME280;59942;49.304;8.256;2023-11-19T03:18:49;100179.78;;;8.54;100.00
57038;BME280;59942;49.304;8.256;2023-11-19T03:21:17;100173.81;;;8.52;100.00
57038;BME280;59942;49.304;8.256;2023-11-19T03:23:44;100189.13;;;8.58;100.00
57038;BME280;59942;49.304;8.256;2023-11-19T03:26:11;100171.97;;;8.56;100.00
57038;BME280;59942;49.304;8.256;2023-11-19T03:28:40;100172.09;;;8.52;100.00
57038;BME280;59942;49.304;8.256;2023-11-19T03:31:06;100165.94;;;8.57;100.00
57038;BME280;59942;49.304;8.256;2023-11-19T03:33:36;100172.69;;;8.59;100.00
57038;BME280;59942;49.304;8.256;2023-11-19T03:36:05;100176.91;;;8.62;100.00
57038;BME280;59942;49.304;8.256;2023-11-19T03:38:32;100174.56;;;8.56;100.00
57038;BME280;59942;49.304;8.256;2023-11-19T03:40:58;100175.13;;;8.64;100.00
57038;BME280;59942;49.304;8.256;2023-11-19T03:43:25;100176.78;;;8.65;100.00
57038;BME280;59942;49.304;8.256;2023-11-19T03:45:54;100164.78;;;8.64;100.00
57038;BME280;59942;49.304;8.256;2023-11-19T03:48:21;100159.50;;;8.67;100.00
57038;BME280;59942;49.304;8.256;2023-11-19T03:50:47;100162.91;;;8.67;100.00
57038;BME280;59942;49.304;8.256;2023-11-19T03:53:16;100156.63;;;8.75;100.00
57038;BME280;59942;49.304;8.256;2023-11-19T03:55:42;100158.44;;;8.73;100.00
57038;BME280;59942;49.304;8.256;2023-11-19T03:58:09;100117.09;;;8.49;100.00
57038;BME280;59942;49.304;8.256;2023-11-19T04:00:38;100167.63;;;8.80;100.00
57038;BME280;59942;49.304;8.256;2023-11-19T04:03:04;100157.34;;;8.78;100.00
57038;BME280;59942;49.304;8.256;2023-11-19T04:05:31;100165.75;;;8.83;100.00
57038;BME280;59942;49.304;8.256;2023-11-19T04:07:57;100157.94;;;8.85;100.00
57038;BME280;59942;49.304;8.256;2023-11-19T04:10:26;100156.03;;;8.90;100.00
57038;BME280;59942;49.304;8.256;2023-11-19T04:12:54;100149.91;;;8.93;100.00
57038;BME280;59942;49.304;8.256;2023-11-19T04:15:20;100148.28;;;8.90;100.00
57038;BME280;59942;49.304;8.256;2023-11-19T04:17:49;100154.41;;;8.88;100.00
57038;BME280;59942;49.304;8.256;2023-11-19T04:20:16;100172.38;;;8.91;100.00
57038;BME280;59942;49.304;8.256;2023-11-19T04:22:42;100168.97;;;8.90;100.00
57038;BME280;59942;49.304;8.256;2023-11-19T04:25:09;100179.06;;;8.96;100.00
57038;BME280;59942;49.304;8.256;2023-11-19T04:27:38;100180.56;;;9.02;100.00
57038;BME280;59942;49.304;8.256;2023-11-19T04:30:05;100169.44;;;9.00;100.00
57038;BME280;59942;49.304;8.256;2023-11-19T04:32:37;100173.94;;;8.95;100.00
57038;BME280;59942;49.304;8.256;2023-11-19T04:35:07;100148.63;;;9.03;100.00
57038;BME280;59942;49.304;8.256;2023-11-19T04:37:34;100150.13;;;9.09;100.00
57038;BME280;59942;49.304;8.256;2023-11-19T04:40:03;100143.97;;;9.11;100.00
57038;BME280;59942;49.304;8.256;2023-11-19T04:42:33;100148.97;;;9.16;100.00
57038;BME280;59942;49.304;8.256;2023-11-19T04:44:59;100148.84;;;9.19;100.00
57038;BME280;59942;49.304;8.256;2023-11-19T04:47:26;100150.66;;;9.17;100.00
57038;BME280;59942;49.304;8.256;2023-11-19T04:49:52;100142.81;;;9.18;100.00
57038;BME280;59942;49.304;8.256;2023-11-19T04:52:19;100152.69;;;9.31;100.00
57038;BME280;59942;49.304;8.256;2023-11-19T04:54:48;100144.84;;;9.32;100.00
57038;BME280;59942;49.304;8.256;2023-11-19T04:57:14;100142.28;;;9.32;100.00
57038;BME280;59942;49.304;8.256;2023-11-19T04:59:43;100130.44;;;9.27;100.00
57038;BME280;59942;49.304;8.256;2023-11-19T05:02:10;100137.09;;;9.32;100.00
57038;BME280;59942;49.304;8.256;2023-11-19T05:04:37;100144.44;;;9.43;100.00
57038;BME280;59942;49.304;8.256;2023-11-19T05:07:06;100112.09;;;9.11;100.00
57038;BME280;59942;49.304;8.256;2023-11-19T05:09:35;100125.13;;;9.30;100.00
57038;BME280;59942;49.304;8.256;2023-11-19T05:12:02;100140.72;;;9.49;100.00
57038;BME280;59942;49.304;8.256;2023-11-19T05:14:29;100124.81;;;9.37;100.00
57038;BME280;59942;49.304;8.256;2023-11-19T05:16:55;100149.34;;;9.49;100.00
57038;BME280;59942;49.304;8.256;2023-11-19T05:19:24;100138.31;;;9.44;100.00
57038;BME280;59942;49.304;8.256;2023-11-19T05:21:53;100128.16;;;9.39;100.00
57038;BME280;59942;49.304;8.256;2023-11-19T05:24:22;100148.25;;;9.55;100.00
57038;BME280;59942;49.304;8.256;2023-11-19T05:26:49;100130.19;;;9.53;100.00
57038;BME280;59942;49.304;8.256;2023-11-19T05:29:17;100138.84;;;9.52;100.00
57038;BME280;59942;49.304;8.256;2023-11-19T05:31:43;100097.53;;;9.30;100.00
57038;BME280;59942;49.304;8.256;2023-11-19T05:34:10;100130.50;;;9.66;100.00
57038;BME280;59942;49.304;8.256;2023-11-19T05:36:38;100140.22;;;9.61;100.00
57038;BME280;59942;49.304;8.256;2023-11-19T05:39:05;100126.47;;;9.80;100.00
57038;BME280;59942;49.304;8.256;2023-11-19T05:41:35;100130.31;;;9.71;100.00
57038;BME280;59942;49.304;8.256;2023-11-19T05:44:01;100132.44;;;9.82;100.00
57038;BME280;59942;49.304;8.256;2023-11-19T05:46:28;100119.28;;;9.86;100.00
57038;BME280;59942;49.304;8.256;2023-11-19T05:48:55;100114.22;;;9.83;100.00
57038;BME280;59942;49.304;8.256;2023-11-19T05:51:23;100110.47;;;9.90;100.00
57038;BME280;59942;49.304;8.256;2023-11-19T05:53:51;100114.75;;;9.91;100.00
57038;BME280;59942;49.304;8.256;2023-11-19T05:56:17;100106.91;;;9.93;100.00
57038;BME280;59942;49.304;8.256;2023-11-19T05:58:48;100105.94;;;9.96;100.00
57038;BME280;59942;49.304;8.256;2023-11-19T06:01:17;100097.78;;;9.84;100.00
57038;BME280;59942;49.304;8.256;2023-11-19T06:03:46;100110.28;;;9.95;100.00
57038;BME280;59942;49.304;8.256;2023-11-19T06:06:16;100056.28;;;9.67;100.00
57038;BME280;59942;49.304;8.256;2023-11-19T06:08:43;100078.19;;;9.79;100.00
57038;BME280;59942;49.304;8.256;2023-11-19T06:11:13;100114.47;;;9.98;100.00
57038;BME280;59942;49.304;8.256;2023-11-19T06:13:44;100114.91;;;10.07;100.00
57038;BME280;59942;49.304;8.256;2023-11-19T06:16:14;100130.44;;;10.07;100.00
57038;BME280;59942;49.304;8.256;2023-11-19T06:18:40;100125.25;;;10.07;100.00
57038;BME280;59942;49.304;8.256;2023-11-19T06:21:08;100108.97;;;10.05;100.00
57038;BME280;59942;49.304;8.256;2023-11-19T06:23:34;100115.66;;;10.09;100.00
57038;BME280;59942;49.304;8.256;2023-11-19T06:26:01;100133.78;;;10.09;100.00
57038;BME280;59942;49.304;8.256;2023-11-19T06:28:27;100114.63;;;10.14;100.00
57038;BME280;59942;49.304;8.256;2023-11-19T06:30:56;100117.13;;;10.15;100.00
57038;BME280;59942;49.304;8.256;2023-11-19T06:33:24;100112.97;;;10.13;100.00
57038;BME280;59942;49.304;8.256;2023-11-19T06:35:51;100112.66;;;10.19;100.00
57038;BME280;59942;49.304;8.256;2023-11-19T06:38:18;100097.28;;;10.16;100.00
57038;BME280;59942;49.304;8.256;2023-11-19T06:40:45;100122.75;;;10.25;100.00
57038;BME280;59942;49.304;8.256;2023-11-19T06:43:14;100119.13;;;10.29;100.00
57038;BME280;59942;49.304;8.256;2023-11-19T06:45:41;100119.94;;;10.30;100.00
57038;BME280;59942;49.304;8.256;2023-11-19T06:48:08;100120.16;;;10.25;100.00
57038;BME280;59942;49.304;8.256;2023-11-19T06:50:34;100128.59;;;10.30;100.00
57038;BME280;59942;49.304;8.256;2023-11-19T06:53:01;100125.72;;;10.36;100.00
57038;BME280;59942;49.304;8.256;2023-11-19T06:55:27;100135.19;;;10.37;100.00
57038;BME280;59942;49.304;8.256;2023-11-19T06:57:56;100145.91;;;10.49;100.00
57038;BME280;59942;49.304;8.256;2023-11-19T07:00:25;100082.19;;;10.05;100.00
57038;BME280;59942;49.304;8.256;2023-11-19T07:02:57;100147.56;;;10.50;100.00
57038;BME280;59942;49.304;8.256;2023-11-19T07:05:25;100133.72;;;10.51;100.00
57038;BME280;59942;49.304;8.256;2023-11-19T07:07:52;100132.88;;;10.50;100.00
57038;BME280;59942;49.304;8.256;2023-11-19T07:10:20;100134.84;;;10.45;100.00
57038;BME280;59942;49.304;8.256;2023-11-19T07:12:46;100136.16;;;10.54;100.00
57038;BME280;59942;49.304;8.256;2023-11-19T07:15:16;100142.25;;;10.53;100.00
57038;BME280;59942;49.304;8.256;2023-11-19T07:17:44;100155.84;;;10.58;100.00
57038;BME280;59942;49.304;8.256;2023-11-19T07:20:11;100161.03;;;10.58;100.00
57038;BME280;59942;49.304;8.256;2023-11-19T07:22:39;100162.31;;;10.49;100.00
57038;BME280;59942;49.304;8.256;2023-11-19T07:25:08;100165.66;;;10.51;100.00
57038;BME280;59942;49.304;8.256;2023-11-19T07:27:37;100168.25;;;10.51;100.00
57038;BME280;59942;49.304;8.256;2023-11-19T07:30:07;100172.53;;;10.52;100.00
57038;BME280;59942;49.304;8.256;2023-11-19T07:32:36;100136.22;;;10.33;100.00
57038;BME280;59942;49.304;8.256;2023-11-19T07:35:08;100170.91;;;10.50;100.00
57038;BME280;59942;49.304;8.256;2023-11-19T07:37:37;100167.84;;;10.41;100.00
57038;BME280;59942;49.304;8.256;2023-11-19T07:40:04;100180.53;;;10.48;100.00
57038;BME280;59942;49.304;8.256;2023-11-19T07:42:31;100172.25;;;10.39;100.00
57038;BME280;59942;49.304;8.256;2023-11-19T07:44:58;100174.06;;;10.56;100.00
57038;BME280;59942;49.304;8.256;2023-11-19T07:47:29;100168.88;;;10.37;100.00
57038;BME280;59942;49.304;8.256;2023-11-19T07:49:55;100169.19;;;10.50;100.00
57038;BME280;59942;49.304;8.256;2023-11-19T07:52:22;100170.72;;;10.54;100.00
57038;BME280;59942;49.304;8.256;2023-11-19T07:54:49;100162.16;;;10.52;100.00
57038;BME280;59942;49.304;8.256;2023-11-19T07:57:15;100169.03;;;10.53;100.00
57038;BME280;59942;49.304;8.256;2023-11-19T07:59:44;100164.53;;;10.57;100.00
57038;BME280;59942;49.304;8.256;2023-11-19T08:02:13;100161.19;;;10.55;100.00
57038;BME280;59942;49.304;8.256;2023-11-19T08:04:41;100198.38;;;10.73;100.00
57038;BME280;59942;49.304;8.256;2023-11-19T08:07:11;100198.94;;;10.80;100.00
57038;BME280;59942;49.304;8.256;2023-11-19T08:09:38;100174.75;;;10.60;100.00
57038;BME280;59942;49.304;8.256;2023-11-19T08:12:07;100190.94;;;10.84;100.00
57038;BME280;59942;49.304;8.256;2023-11-19T08:14:35;100188.91;;;10.91;100.00
57038;BME280;59942;49.304;8.256;2023-11-19T08:17:03;100188.84;;;10.92;100.00
57038;BME280;59942;49.304;8.256;2023-11-19T08:19:32;100174.41;;;10.87;100.00
57038;BME280;59942;49.304;8.256;2023-11-19T08:22:01;100173.50;;;10.88;100.00
57038;BME280;59942;49.304;8.256;2023-11-19T08:24:28;100174.66;;;11.00;100.00
57038;BME280;59942;49.304;8.256;2023-11-19T08:26:55;100172.47;;;11.09;100.00
57038;BME280;59942;49.304;8.256;2023-11-19T08:29:24;100179.69;;;11.03;100.00
57038;BME280;59942;49.304;8.256;2023-11-19T08:31:54;100186.69;;;11.20;100.00
57038;BME280;59942;49.304;8.256;2023-11-19T08:34:20;100188.75;;;11.30;100.00
57038;BME280;59942;49.304;8.256;2023-11-19T08:36:50;100186.75;;;11.18;100.00
57038;BME280;59942;49.304;8.256;2023-11-19T08:39:18;100188.97;;;11.26;100.00
57038;BME280;59942;49.304;8.256;2023-11-19T08:41:45;100173.78;;;11.18;100.00
57038;BME280;59942;49.304;8.256;2023-11-19T08:44:11;100171.13;;;11.37;100.00
57038;BME280;59942;49.304;8.256;2023-11-19T08:46:46;100168.44;;;11.39;100.00
57038;BME280;59942;49.304;8.256;2023-11-19T08:49:15;100181.75;;;11.50;100.00
57038;BME280;59942;49.304;8.256;2023-11-19T08:51:44;100185.16;;;11.51;100.00
57038;BME280;59942;49.304;8.256;2023-11-19T08:54:13;100192.97;;;11.51;100.00
57038;BME280;59942;49.304;8.256;2023-11-19T08:56:40;100199.53;;;11.40;100.00
57038;BME280;59942;49.304;8.256;2023-11-19T08:59:07;100203.59;;;11.46;100.00
57038;BME280;59942;49.304;8.256;2023-11-19T09:01:35;100193.13;;;11.47;100.00
57038;BME280;59942;49.304;8.256;2023-11-19T09:04:02;100182.34;;;11.55;100.00
57038;BME280;59942;49.304;8.256;2023-11-19T09:06:29;100177.03;;;11.58;100.00
57038;BME280;59942;49.304;8.256;2023-11-19T09:08:55;100191.44;;;11.64;100.00
57038;BME280;59942;49.304;8.256;2023-11-19T09:11:29;100182.34;;;11.73;100.00
57038;BME280;59942;49.304;8.256;2023-11-19T09:13:58;100180.34;;;11.78;100.00
57038;BME280;59942;49.304;8.256;2023-11-19T09:16:26;100178.41;;;12.16;100.00
57038;BME280;59942;49.304;8.256;2023-11-19T09:18:55;100186.53;;;12.10;100.00
57038;BME280;59942;49.304;8.256;2023-11-19T09:21:26;100187.75;;;12.21;100.00
57038;BME280;59942;49.304;8.256;2023-11-19T09:23:52;100188.94;;;12.31;100.00
57038;BME280;59942;49.304;8.256;2023-11-19T09:26:20;100194.88;;;12.33;100.00
57038;BME280;59942;49.304;8.256;2023-11-19T09:28:46;100203.59;;;12.32;100.00
57038;BME280;59942;49.304;8.256;2023-11-19T09:31:17;100197.59;;;12.47;100.00
57038;BME280;59942;49.304;8.256;2023-11-19T09:33:46;100199.09;;;12.51;100.00
57038;BME280;59942;49.304;8.256;2023-11-19T09:36:15;100199.03;;;12.53;100.00
57038;BME280;59942;49.304;8.256;2023-11-19T09:38:43;100208.44;;;12.56;100.00
57038;BME280;59942;49.304;8.256;2023-11-19T09:41:15;100205.41;;;12.63;100.00
57038;BME280;59942;49.304;8.256;2023-11-19T09:43:42;100199.94;;;12.68;100.00
57038;BME280;59942;49.304;8.256;2023-11-19T09:46:14;100201.06;;;12.96;100.00
57038;BME280;59942;49.304;8.256;2023-11-19T09:48:42;100198.69;;;12.75;100.00
57038;BME280;59942;49.304;8.256;2023-11-19T09:51:10;100202.88;;;12.94;100.00
57038;BME280;59942;49.304;8.256;2023-11-19T09:53:37;100206.25;;;13.12;100.00
57038;BME280;59942;49.304;8.256;2023-11-19T09:56:05;100207.16;;;13.11;100.00
57038;BME280;59942;49.304;8.256;2023-11-19T09:58:34;100212.38;;;12.95;100.00
57038;BME280;59942;49.304;8.256;2023-11-19T10:01:05;100209.38;;;13.33;100.00
57038;BME280;59942;49.304;8.256;2023-11-19T10:03:36;100204.84;;;13.52;96.18
57038;BME280;59942;49.304;8.256;2023-11-19T10:06:09;100193.06;;;13.61;93.56
57038;BME280;59942;49.304;8.256;2023-11-19T10:08:38;100204.44;;;13.75;93.94
57038;BME280;59942;49.304;8.256;2023-11-19T10:11:08;100196.44;;;13.78;94.99
57038;BME280;59942;49.304;8.256;2023-11-19T10:13:40;100184.06;;;13.36;97.96
57038;BME280;59942;49.304;8.256;2023-11-19T10:16:10;100212.19;;;14.05;89.95
57038;BME280;59942;49.304;8.256;2023-11-19T10:18:46;100190.00;;;13.69;94.98
57038;BME280;59942;49.304;8.256;2023-11-19T10:21:16;100186.25;;;13.59;93.19
57038;BME280;59942;49.304;8.256;2023-11-19T10:26:20;100184.63;;;14.01;92.92
57038;BME280;59942;49.304;8.256;2023-11-19T10:28:47;100186.50;;;14.13;94.28
57038;BME280;59942;49.304;8.256;2023-11-19T10:31:15;100187.63;;;13.95;95.41
57038;BME280;59942;49.304;8.256;2023-11-19T10:33:42;100179.56;;;13.69;96.93
57038;BME280;59942;49.304;8.256;2023-11-19T10:36:12;100150.19;;;13.67;94.46
57038;BME280;59942;49.304;8.256;2023-11-19T10:38:39;100176.03;;;13.70;93.36
57038;BME280;59942;49.304;8.256;2023-11-19T10:41:09;100171.63;;;13.56;95.36
57038;BME280;59942;49.304;8.256;2023-11-19T10:43:43;100175.22;;;13.69;94.84
57038;BME280;59942;49.304;8.256;2023-11-19T10:46:16;100187.47;;;13.67;96.07
57038;BME280;59942;49.304;8.256;2023-11-19T10:48:47;100188.44;;;13.50;100.00
57038;BME280;59942;49.304;8.256;2023-11-19T10:51:19;100180.72;;;13.49;100.00
57038;BME280;59942;49.304;8.256;2023-11-19T10:53:50;100190.56;;;13.74;96.04
57038;BME280;59942;49.304;8.256;2023-11-19T10:56:20;100177.09;;;14.11;92.70
57038;BME280;59942;49.304;8.256;2023-11-19T10:58:55;100167.78;;;13.92;92.09
57038;BME280;59942;49.304;8.256;2023-11-19T11:01:23;100171.03;;;13.67;96.79
57038;BME280;59942;49.304;8.256;2023-11-19T11:03:53;100147.31;;;13.86;89.33
57038;BME280;59942;49.304;8.256;2023-11-19T11:06:23;100174.78;;;14.06;90.02
57038;BME280;59942;49.304;8.256;2023-11-19T11:08:51;100115.31;;;13.84;90.65
57038;BME280;59942;49.304;8.256;2023-11-19T11:11:20;100158.66;;;14.14;86.96
57038;BME280;59942;49.304;8.256;2023-11-19T11:13:54;100152.03;;;13.79;91.86
57038;BME280;59942;49.304;8.256;2023-11-19T11:16:23;100168.16;;;14.29;85.70
57038;BME280;59942;49.304;8.256;2023-11-19T11:18:54;100152.41;;;14.45;86.85
57038;BME280;59942;49.304;8.256;2023-11-19T11:21:24;100136.91;;;14.56;84.41
57038;BME280;59942;49.304;8.256;2023-11-19T11:33:32;100153.13;;;14.62;82.82
57038;BME280;59942;49.304;8.256;2023-11-19T11:36:21;100151.97;;;15.07;82.53
57038;BME280;59942;49.304;8.256;2023-11-19T11:38:49;100138.88;;;15.35;78.70
57038;BME280;59942;49.304;8.256;2023-11-19T11:41:23;100125.19;;;15.31;81.67
57038;BME280;59942;49.304;8.256;2023-11-19T11:43:55;100133.13;;;15.42;81.40
57038;BME280;59942;49.304;8.256;2023-11-19T11:49:01;100126.72;;;14.81;80.68
57038;BME280;59942;49.304;8.256;2023-11-19T11:54:11;100132.69;;;15.23;83.16
57038;BME280;59942;49.304;8.256;2023-11-19T11:57:02;100139.94;;;15.05;84.79
57038;BME280;59942;49.304;8.256;2023-11-19T12:02:09;100134.66;;;15.19;80.66
57038;BME280;59942;49.304;8.256;2023-11-19T12:04:42;100139.25;;;15.16;84.49
57038;BME280;59942;49.304;8.256;2023-11-19T12:07:17;100126.31;;;15.14;82.05
57038;BME280;59942;49.304;8.256;2023-11-19T12:10:09;100133.06;;;14.76;82.58
57038;BME280;59942;49.304;8.256;2023-11-19T12:12:37;100120.50;;;14.54;90.94
57038;BME280;59942;49.304;8.256;2023-11-19T12:15:09;100138.56;;;14.30;87.59
57038;BME280;59942;49.304;8.256;2023-11-19T12:17:42;100132.88;;;14.23;88.56
57038;BME280;59942;49.304;8.256;2023-11-19T12:20:15;100124.31;;;14.21;91.03
57038;BME280;59942;49.304;8.256;2023-11-19T12:23:04;100132.69;;;13.98;93.82
57038;BME280;59942;49.304;8.256;2023-11-19T12:25:34;100072.22;;;13.64;89.70
57038;BME280;59942;49.304;8.256;2023-11-19T12:28:00;100138.91;;;13.95;88.58
57038;BME280;59942;49.304;8.256;2023-11-19T12:30:31;100130.00;;;13.99;84.07
57038;BME280;59942;49.304;8.256;2023-11-19T12:32:57;100122.94;;;13.87;83.76
57038;BME280;59942;49.304;8.256;2023-11-19T12:35:24;100125.72;;;13.84;85.09
57038;BME280;59942;49.304;8.256;2023-11-19T12:37:51;100087.75;;;13.65;81.73
57038;BME280;59942;49.304;8.256;2023-11-19T12:40:25;100116.03;;;13.71;85.98
57038;BME280;59942;49.304;8.256;2023-11-19T12:42:53;100114.25;;;14.01;84.04
57038;BME280;59942;49.304;8.256;2023-11-19T12:45:23;100111.00;;;13.97;80.86
57038;BME280;59942;49.304;8.256;2023-11-19T12:48:06;100101.16;;;13.59;86.65
57038;BME280;59942;49.304;8.256;2023-11-19T12:50:55;100095.25;;;13.41;83.39
57038;BME280;59942;49.304;8.256;2023-11-19T12:53:25;100013.75;;;13.25;79.74
57038;BME280;59942;49.304;8.256;2023-11-19T12:56:07;100092.09;;;13.50;81.83
57038;BME280;59942;49.304;8.256;2023-11-19T12:58:35;100091.94;;;13.53;84.17
57038;BME280;59942;49.304;8.256;2023-11-19T13:01:06;100087.66;;;13.67;80.44
57038;BME280;59942;49.304;8.256;2023-11-19T13:03:36;100082.25;;;13.70;78.96
57038;BME280;59942;49.304;8.256;2023-11-19T13:06:08;100092.03;;;13.52;79.86
57038;BME280;59942;49.304;8.256;2023-11-19T13:08:38;100083.44;;;13.50;81.18
57038;BME280;59942;49.304;8.256;2023-11-19T13:11:08;100084.22;;;13.52;78.70
57038;BME280;59942;49.304;8.256;2023-11-19T13:16:26;100100.28;;;13.44;80.50
57038;BME280;59942;49.304;8.256;2023-11-19T13:18:56;100089.97;;;13.27;82.54